createdAt,value
2023-01-23T00:01:14.925Z,28.33
2023-01-23T00:03:41.860Z,29.33
2023-01-23T00:06:13.296Z,27.57
2023-01-23T00:08:41.448Z,28.27
2023-01-23T00:11:10.969Z,26.17
2023-01-23T00:13:38.469Z,28.70
2023-01-23T00:16:11.229Z,26.93
2023-01-23T00:18:38.632Z,25.37
2023-01-23T00:21:07.552Z,26.53
2023-01-23T00:23:34.627Z,26.10
2023-01-23T00:26:04.113Z,25.03
2023-01-23T00:28:31.279Z,25.13
2023-01-23T00:31:12.989Z,24.20
2023-01-23T00:33:40.549Z,23.80
2023-01-23T00:36:08.375Z,25.57
2023-01-23T00:38:36.160Z,24.97
2023-01-23T00:41:03.827Z,24.47
2023-01-23T00:43:32.857Z,25.43
2023-01-23T00:46:00.661Z,25.07
2023-01-23T00:48:27.741Z,28.13
2023-01-23T00:50:55.065Z,26.27
2023-01-23T00:53:22.807Z,27.27
2023-01-23T00:55:50.077Z,25.30
2023-01-23T00:58:17.169Z,27.47
2023-01-23T01:00:44.376Z,27.63
2023-01-23T01:03:11.414Z,27.23
2023-01-23T01:05:38.767Z,25.57
2023-01-23T01:08:06.037Z,24.63
2023-01-23T01:10:34.139Z,23.80
2023-01-23T01:13:02.949Z,24.30
2023-01-23T01:15:30.934Z,26.00
2023-01-23T01:17:59.235Z,24.33
2023-01-23T01:20:27.936Z,24.87
2023-01-23T01:22:57.660Z,23.53
2023-01-23T01:25:25.317Z,25.43
2023-01-23T01:27:56.015Z,22.37
2023-01-23T01:30:25.442Z,24.07
2023-01-23T01:32:53.360Z,24.03
2023-01-23T01:35:21.271Z,25.23
2023-01-23T01:37:48.280Z,23.73
2023-01-23T01:40:22.891Z,23.83
2023-01-23T01:43:01.300Z,23.20
2023-01-23T01:46:06.385Z,23.27
2023-01-23T01:48:45.569Z,22.80
2023-01-23T01:51:38.930Z,24.30
2023-01-23T01:54:21.049Z,24.50
2023-01-23T01:56:53.650Z,23.70
2023-01-23T01:59:22.218Z,25.97
2023-01-23T02:01:54.419Z,26.00
2023-01-23T02:04:21.538Z,24.17
2023-01-23T02:06:50.575Z,25.60
2023-01-23T02:09:25.996Z,24.63
2023-01-23T02:11:54.390Z,25.97
2023-01-23T02:14:24.405Z,26.97
2023-01-23T02:16:52.962Z,25.93
2023-01-23T02:19:29.966Z,25.07
2023-01-23T02:22:09.376Z,26.60
2023-01-23T02:24:40.984Z,24.47
2023-01-23T02:27:08.568Z,24.50
2023-01-23T02:29:43.571Z,24.23
2023-01-23T02:32:11.064Z,26.53
2023-01-23T02:34:38.823Z,24.50
2023-01-23T02:37:06.908Z,24.93
2023-01-23T02:39:34.068Z,26.23
2023-01-23T02:42:03.055Z,25.30
2023-01-23T02:44:42.256Z,25.30
2023-01-23T02:47:12.392Z,25.20
2023-01-23T02:49:40.955Z,26.03
2023-01-23T02:52:09.942Z,26.53
2023-01-23T02:54:37.487Z,28.73
2023-01-23T02:57:04.856Z,29.43
2023-01-23T02:59:50.637Z,29.27
2023-01-23T03:02:18.918Z,27.20
2023-01-23T03:04:48.031Z,26.27
2023-01-23T03:07:15.765Z,25.13
2023-01-23T03:09:46.263Z,25.03
2023-01-23T03:12:15.461Z,26.00
2023-01-23T03:14:42.445Z,27.13
2023-01-23T03:17:11.133Z,26.87
2023-01-23T03:19:39.130Z,26.50
2023-01-23T03:22:07.202Z,26.27
2023-01-23T03:24:34.795Z,27.00
2023-01-23T03:27:02.598Z,24.97
2023-01-23T03:29:54.138Z,26.50
2023-01-23T03:32:22.590Z,25.50
2023-01-23T03:34:49.551Z,26.27
2023-01-23T03:37:19.626Z,26.60
2023-01-23T03:40:05.824Z,23.57
2023-01-23T03:42:34.751Z,24.47
2023-01-23T03:45:03.751Z,25.53
2023-01-23T03:47:34.248Z,26.00
2023-01-23T03:50:01.189Z,25.83
2023-01-23T03:52:32.088Z,23.07
2023-01-23T03:54:59.159Z,24.07
2023-01-23T03:57:26.404Z,25.33
2023-01-23T04:00:18.265Z,25.23
2023-01-23T04:02:53.319Z,23.93
2023-01-23T04:05:20.653Z,25.83
2023-01-23T04:07:48.020Z,24.70
2023-01-23T04:10:15.922Z,26.70
2023-01-23T04:12:48.038Z,27.50
2023-01-23T04:15:14.995Z,25.40
2023-01-23T04:17:42.831Z,25.00
2023-01-23T04:20:10.765Z,25.67
2023-01-23T04:22:38.478Z,24.07
2023-01-23T04:25:06.325Z,24.47
2023-01-23T04:27:33.708Z,26.00
2023-01-23T04:30:01.568Z,25.03
2023-01-23T04:32:29.133Z,26.47
2023-01-23T04:34:57.136Z,24.50
2023-01-23T04:37:25.876Z,23.53
2023-01-23T04:39:53.037Z,24.83
2023-01-23T04:42:20.578Z,24.43
2023-01-23T04:45:09.292Z,24.30
2023-01-23T04:47:37.070Z,24.60
2023-01-23T04:50:09.337Z,24.17
2023-01-23T04:52:37.028Z,25.17
2023-01-23T04:55:04.287Z,26.00
2023-01-23T04:57:32.014Z,24.97
2023-01-23T05:00:10.886Z,25.20
2023-01-23T05:02:38.327Z,25.07
2023-01-23T05:05:06.647Z,25.13
2023-01-23T05:07:34.091Z,24.47
2023-01-23T05:10:06.799Z,26.23
2023-01-23T05:12:34.510Z,24.87
2023-01-23T05:15:02.964Z,26.97
2023-01-23T05:17:30.575Z,26.67
2023-01-23T05:19:58.146Z,28.60
2023-01-23T05:22:25.121Z,25.73
2023-01-23T05:24:53.355Z,23.73
2023-01-23T05:27:20.830Z,24.53
2023-01-23T05:29:49.743Z,25.03
2023-01-23T05:32:23.188Z,25.03
2023-01-23T05:34:57.657Z,24.00
2023-01-23T05:37:30.416Z,24.83
2023-01-23T05:40:03.712Z,26.37
2023-01-23T05:42:50.880Z,24.57
2023-01-23T05:45:41.006Z,24.13
2023-01-23T05:48:14.177Z,24.93
2023-01-23T05:50:41.784Z,27.37
2023-01-23T05:53:08.912Z,24.70
2023-01-23T05:55:40.557Z,26.93
2023-01-23T05:58:09.257Z,25.90
2023-01-23T06:01:03.499Z,24.47
2023-01-23T06:03:48.912Z,25.93
2023-01-23T06:06:36.705Z,24.90
2023-01-23T06:09:03.809Z,27.70
2023-01-23T06:11:32.240Z,25.73
2023-01-23T06:13:59.615Z,23.97
2023-01-23T06:16:26.867Z,25.60
2023-01-23T06:18:53.919Z,26.30
2023-01-23T06:21:21.424Z,25.83
2023-01-23T06:23:48.401Z,27.93
2023-01-23T06:26:16.681Z,26.43
2023-01-23T06:28:44.449Z,26.57
2023-01-23T06:31:12.273Z,26.73
2023-01-23T06:34:08.584Z,26.60
2023-01-23T06:36:42.974Z,23.73
2023-01-23T06:39:13.646Z,24.70
2023-01-23T06:41:43.043Z,25.23
2023-01-23T06:44:16.384Z,26.53
2023-01-23T06:46:43.713Z,25.73
2023-01-23T06:49:10.806Z,24.53
2023-01-23T06:51:38.261Z,25.80
2023-01-23T06:54:08.110Z,27.07
2023-01-23T06:56:35.475Z,28.80
2023-01-23T06:59:06.528Z,25.33
2023-01-23T07:01:34.491Z,23.13
2023-01-23T07:04:21.826Z,25.23
2023-01-23T07:06:51.217Z,25.37
2023-01-23T07:09:19.882Z,24.20
2023-01-23T07:11:59.199Z,27.33
2023-01-23T07:14:28.730Z,31.53
2023-01-23T07:16:57.108Z,24.77
2023-01-23T07:19:25.281Z,25.37
2023-01-23T07:21:53.525Z,28.57
2023-01-23T07:24:20.570Z,29.30
2023-01-23T07:26:48.059Z,27.43
2023-01-23T07:29:15.132Z,26.17
2023-01-23T07:31:42.437Z,26.47
2023-01-23T07:34:09.443Z,28.13
2023-01-23T07:36:36.692Z,26.97
2023-01-23T07:39:03.686Z,27.67
2023-01-23T07:41:31.041Z,27.13
2023-01-23T07:44:02.163Z,26.10
2023-01-23T07:46:29.490Z,27.83
2023-01-23T07:48:56.641Z,25.77
2023-01-23T07:51:24.220Z,28.10
2023-01-23T07:53:51.217Z,28.23
2023-01-23T07:56:18.877Z,27.73
2023-01-23T07:58:49.740Z,30.13
2023-01-23T08:01:17.485Z,27.10
2023-01-23T08:03:44.444Z,30.70
2023-01-23T08:06:11.791Z,29.37
2023-01-23T08:08:38.756Z,30.13
2023-01-23T08:11:07.592Z,29.27
2023-01-23T08:13:34.514Z,31.57
2023-01-23T08:16:02.087Z,30.30
2023-01-23T08:18:30.308Z,32.10
2023-01-23T08:20:59.185Z,32.80
2023-01-23T08:23:28.207Z,31.57
2023-01-23T08:25:56.988Z,31.20
2023-01-23T08:28:24.675Z,31.97
2023-01-23T08:30:52.259Z,32.30
2023-01-23T08:33:20.048Z,32.27
2023-01-23T08:35:50.617Z,32.00
2023-01-23T08:38:19.124Z,31.17
2023-01-23T08:40:47.415Z,31.70
2023-01-23T08:43:15.825Z,31.97
2023-01-23T08:45:49.005Z,32.47
2023-01-23T08:48:16.384Z,31.50
2023-01-23T08:50:43.660Z,32.20
2023-01-23T08:53:10.826Z,31.23
2023-01-23T08:55:39.063Z,30.80
2023-01-23T08:58:07.538Z,32.47
2023-01-23T09:00:35.533Z,32.53
2023-01-23T09:03:03.289Z,33.77
2023-01-23T09:05:31.530Z,35.10
2023-01-23T09:08:02.199Z,31.47
2023-01-23T09:10:29.732Z,33.90
2023-01-23T09:12:57.520Z,32.57
2023-01-23T09:15:24.972Z,32.47
2023-01-23T09:17:51.917Z,34.77
2023-01-23T09:20:19.862Z,33.17
2023-01-23T09:22:47.068Z,37.47
2023-01-23T09:25:14.443Z,38.13
2023-01-23T09:27:41.572Z,39.40
2023-01-23T09:30:09.735Z,35.37
2023-01-23T09:32:36.948Z,37.47
2023-01-23T09:35:05.164Z,36.17
2023-01-23T09:37:51.280Z,36.50
2023-01-23T09:40:20.196Z,31.50
2023-01-23T09:42:47.340Z,33.50
2023-01-23T09:45:20.111Z,34.47
2023-01-23T09:48:03.133Z,34.60
2023-01-23T09:50:33.806Z,32.00
2023-01-23T09:53:15.557Z,32.17
2023-01-23T09:55:49.197Z,32.40
2023-01-23T09:58:22.654Z,33.13
2023-01-23T10:00:51.358Z,34.93
2023-01-23T10:03:18.443Z,33.70
2023-01-23T10:06:00.608Z,33.20
2023-01-23T10:08:33.221Z,34.47
2023-01-23T10:11:04.501Z,36.00
2023-01-23T10:14:02.518Z,35.37
2023-01-23T10:16:49.376Z,35.17
2023-01-23T10:19:32.313Z,36.67
2023-01-23T10:22:36.232Z,41.60
2023-01-23T10:25:15.943Z,34.07
2023-01-23T10:27:46.122Z,35.40
2023-01-23T10:30:24.083Z,33.73
2023-01-23T10:32:55.704Z,32.27
2023-01-23T10:35:37.345Z,33.93
2023-01-23T10:38:07.530Z,33.63
2023-01-23T10:40:52.716Z,33.83
2023-01-23T10:43:21.204Z,32.67
2023-01-23T10:45:49.764Z,33.43
2023-01-23T10:48:32.015Z,33.30
2023-01-23T10:51:03.519Z,32.67
2023-01-23T10:53:31.024Z,32.80
2023-01-23T10:55:59.755Z,31.63
2023-01-23T10:58:40.977Z,32.83
2023-01-23T11:01:27.057Z,33.10
2023-01-23T11:03:54.370Z,33.43
2023-01-23T11:06:25.965Z,34.83
2023-01-23T11:09:00.280Z,34.27
2023-01-23T11:11:32.511Z,32.23
2023-01-23T11:14:11.591Z,33.53
2023-01-23T11:16:39.053Z,32.73
2023-01-23T11:19:09.066Z,32.77
2023-01-23T11:21:52.063Z,30.97
2023-01-23T11:24:27.741Z,32.33
2023-01-23T11:27:02.566Z,32.13
2023-01-23T11:29:31.468Z,35.90
2023-01-23T11:32:05.432Z,34.33
2023-01-23T11:34:43.228Z,34.10
2023-01-23T11:37:24.014Z,35.43
2023-01-23T11:40:01.642Z,34.30
2023-01-23T11:42:29.303Z,33.33
2023-01-23T11:44:59.328Z,35.47
2023-01-23T11:47:41.996Z,32.77
2023-01-23T11:50:15.136Z,33.00
2023-01-23T11:52:53.976Z,35.97
2023-01-23T11:55:30.144Z,36.27
2023-01-23T11:58:30.001Z,34.27
2023-01-23T12:01:15.413Z,33.07
2023-01-23T12:04:09.982Z,34.20
2023-01-23T12:06:40.640Z,49.67
2023-01-23T12:09:12.366Z,38.17
2023-01-23T12:11:48.662Z,33.10
2023-01-23T12:14:27.868Z,33.73
2023-01-23T12:17:02.696Z,33.10
2023-01-23T12:19:53.046Z,32.90
2023-01-23T12:22:47.739Z,33.70
2023-01-23T12:25:33.077Z,30.87
2023-01-23T12:28:12.759Z,32.00
2023-01-23T12:30:43.139Z,32.40
2023-01-23T12:33:44.076Z,34.87
2023-01-23T12:36:17.425Z,33.00
2023-01-23T12:39:07.054Z,32.53
2023-01-23T12:41:41.491Z,32.23
2023-01-23T12:44:41.019Z,30.53
2023-01-23T12:47:13.607Z,32.50
2023-01-23T12:49:49.845Z,32.40
2023-01-23T12:52:58.819Z,33.67
2023-01-23T12:55:31.265Z,33.93
2023-01-23T12:58:08.110Z,34.23
2023-01-23T13:00:42.647Z,35.90
2023-01-23T13:03:47.116Z,34.53
2023-01-23T13:06:36.220Z,35.87
2023-01-23T13:09:21.245Z,36.17
2023-01-23T13:12:08.151Z,34.20
2023-01-23T13:15:00.548Z,33.17
2023-01-23T13:17:29.851Z,36.93
2023-01-23T13:20:41.883Z,36.90
2023-01-23T13:23:31.463Z,34.67
2023-01-23T13:26:19.545Z,37.63
2023-01-23T13:28:57.768Z,34.57
2023-01-23T13:31:46.500Z,38.43
2023-01-23T13:34:17.458Z,36.43
2023-01-23T13:36:46.853Z,39.07
2023-01-23T13:39:17.175Z,38.57
2023-01-23T13:41:45.695Z,39.23
2023-01-23T13:44:40.300Z,40.23
2023-01-23T14:20:19.326Z,38.30
2023-01-23T14:22:46.847Z,38.47
2023-01-23T14:25:17.431Z,37.70
2023-01-23T14:27:53.278Z,37.57
2023-01-23T14:30:27.323Z,38.03
2023-01-23T14:32:55.379Z,37.27
2023-01-23T14:35:30.375Z,37.63
2023-01-23T14:38:05.877Z,36.83
2023-01-23T14:40:43.463Z,38.10
2023-01-23T14:43:25.136Z,35.97
2023-01-23T14:46:06.935Z,35.27
2023-01-23T14:48:38.184Z,37.77
2023-01-23T14:51:10.711Z,36.03
2023-01-23T14:53:41.650Z,37.73
2023-01-23T14:56:10.495Z,36.83
2023-01-23T14:58:38.116Z,39.90
2023-01-23T15:01:05.350Z,38.00
2023-01-23T15:03:41.961Z,37.00
2023-01-23T15:06:13.055Z,35.40
2023-01-23T15:08:40.845Z,39.73
2023-01-23T15:11:12.038Z,41.17
2023-01-23T15:13:50.513Z,37.93
2023-01-23T15:16:21.006Z,37.03
2023-01-23T15:18:55.018Z,37.40
2023-01-23T15:21:39.737Z,36.03
2023-01-23T15:24:10.037Z,36.33
2023-01-23T15:26:38.071Z,37.50
2023-01-23T15:29:11.030Z,38.23
2023-01-23T15:31:40.614Z,37.67
2023-01-23T15:34:14.027Z,36.63
2023-01-23T15:36:49.855Z,34.93
2023-01-23T15:39:37.392Z,37.43
2023-01-23T15:42:23.740Z,37.07
2023-01-23T15:44:51.074Z,38.23
2023-01-23T15:47:18.045Z,38.13
2023-01-23T15:49:45.365Z,37.40
2023-01-23T15:52:18.376Z,39.20
2023-01-23T15:54:45.650Z,37.70
2023-01-23T15:57:13.330Z,38.63
2023-01-23T15:59:40.765Z,40.23
2023-01-23T16:02:24.716Z,35.97
2023-01-23T16:04:56.704Z,38.07
2023-01-23T16:07:31.696Z,39.60
2023-01-23T16:09:59.086Z,38.13
2023-01-23T16:12:30.365Z,38.90
2023-01-23T16:14:57.648Z,38.87
2023-01-23T16:17:24.856Z,41.93
2023-01-23T16:19:52.792Z,39.30
2023-01-23T16:22:26.258Z,38.87
2023-01-23T16:24:53.690Z,39.37
2023-01-23T16:27:27.354Z,40.20
2023-01-23T16:29:55.611Z,41.13
2023-01-23T16:32:23.069Z,41.10
2023-01-23T16:34:50.503Z,44.63
2023-01-23T16:37:18.795Z,43.50
2023-01-23T16:39:47.853Z,44.47
2023-01-23T16:42:22.876Z,46.60
2023-01-23T16:44:50.791Z,43.60
2023-01-23T16:47:18.043Z,44.90
2023-01-23T16:49:54.069Z,45.63
2023-01-23T16:52:24.575Z,45.17
2023-01-23T16:54:53.308Z,49.37
2023-01-23T16:57:21.511Z,44.03
2023-01-23T16:59:49.940Z,44.73
2023-01-23T17:02:22.548Z,47.07
2023-01-23T17:04:50.317Z,45.50
2023-01-23T17:07:18.322Z,48.33
2023-01-23T17:09:45.883Z,53.17
2023-01-23T17:12:21.494Z,44.70
2023-01-23T17:14:49.809Z,41.33
2023-01-23T17:17:23.245Z,43.77
2023-01-23T17:19:50.610Z,48.83
2023-01-23T17:22:23.884Z,45.77
2023-01-23T17:24:51.272Z,42.37
2023-01-23T17:27:18.350Z,41.93
2023-01-23T17:29:45.603Z,42.87
2023-01-23T17:32:36.017Z,41.77
2023-01-23T17:35:06.639Z,41.73
2023-01-23T17:37:34.879Z,42.13
2023-01-23T17:40:01.965Z,42.67
2023-01-23T17:42:29.246Z,42.80
2023-01-23T17:44:56.390Z,41.47
2023-01-23T17:47:23.904Z,40.53
2023-01-23T17:49:52.131Z,40.77
2023-01-23T17:52:21.731Z,42.37
2023-01-23T17:54:49.683Z,42.63
2023-01-23T17:57:17.327Z,41.53
2023-01-23T17:59:44.312Z,45.07
2023-01-23T18:02:24.344Z,41.57
2023-01-23T18:04:51.417Z,41.50
2023-01-23T18:07:18.716Z,43.47
2023-01-23T18:09:45.761Z,47.17
2023-01-23T18:12:27.465Z,40.90
2023-01-23T18:15:12.279Z,40.70
2023-01-23T18:17:49.843Z,40.97
2023-01-23T18:20:22.045Z,39.50
2023-01-23T18:22:50.224Z,42.77
2023-01-23T18:25:19.332Z,42.13
2023-01-23T18:27:50.281Z,39.30
2023-01-23T18:30:32.232Z,42.40
2023-01-23T18:33:05.719Z,39.53
2023-01-23T18:35:57.573Z,39.73
2023-01-23T18:38:37.260Z,41.50
2023-01-23T18:41:10.473Z,40.10
2023-01-23T18:43:43.808Z,38.30
2023-01-23T18:46:18.958Z,42.30
2023-01-23T18:48:47.967Z,42.03
2023-01-23T18:51:39.299Z,41.13
2023-01-23T18:54:25.633Z,41.47
2023-01-23T18:57:15.588Z,40.30
2023-01-23T18:59:53.356Z,39.23
2023-01-23T19:02:52.669Z,41.70
2023-01-23T19:05:29.647Z,42.17
2023-01-23T19:07:57.824Z,40.47
2023-01-23T19:10:29.240Z,40.23
2023-01-23T19:13:06.360Z,40.37
2023-01-23T19:15:40.116Z,38.70
2023-01-23T19:18:41.060Z,37.73
2023-01-23T19:21:14.691Z,37.47
2023-01-23T19:23:50.320Z,36.83
2023-01-23T19:26:18.735Z,36.47
2023-01-23T19:28:46.170Z,36.50
2023-01-23T19:31:23.307Z,37.50
2023-01-23T19:33:51.047Z,36.67
2023-01-23T19:36:19.398Z,38.20
2023-01-23T19:38:46.664Z,38.27
2023-01-23T19:41:20.183Z,36.50
2023-01-23T19:43:54.691Z,38.23
2023-01-23T19:46:25.966Z,37.97
2023-01-23T19:48:53.293Z,38.67
2023-01-23T19:51:21.934Z,39.83
2023-01-23T19:53:49.183Z,39.17
2023-01-23T19:56:19.896Z,40.90
2023-01-23T19:58:47.753Z,35.90
2023-01-23T20:01:37.085Z,38.70
2023-01-23T20:04:05.426Z,35.70
2023-01-23T20:06:34.353Z,37.40
2023-01-23T20:09:01.748Z,36.33
2023-01-23T20:11:29.729Z,38.77
2023-01-23T20:13:56.934Z,37.43
2023-01-23T20:16:27.354Z,36.90
2023-01-23T20:18:55.087Z,38.27
2023-01-23T20:21:24.298Z,37.67
2023-01-23T20:23:51.642Z,40.30
2023-01-23T20:26:22.196Z,38.77
2023-01-23T20:28:50.783Z,39.10
2023-01-23T20:31:18.609Z,34.33
2023-01-23T20:33:46.160Z,34.97
2023-01-23T20:36:15.934Z,35.47
2023-01-23T20:38:43.568Z,36.87
2023-01-23T20:41:13.847Z,36.77
2023-01-23T20:43:44.148Z,36.00
2023-01-23T20:46:14.355Z,37.10
2023-01-23T20:48:46.363Z,38.00
2023-01-23T20:51:16.481Z,37.17
2023-01-23T20:53:44.728Z,38.83
2023-01-23T20:56:13.361Z,37.67
2023-01-23T20:59:04.460Z,39.10
2023-01-23T21:01:55.239Z,37.60
2023-01-23T21:04:24.538Z,33.50
2023-01-23T21:06:52.488Z,35.93
2023-01-23T21:09:20.364Z,36.17
2023-01-23T21:11:50.091Z,35.20
2023-01-23T21:14:17.721Z,37.50
2023-01-23T21:16:46.226Z,35.53
2023-01-23T21:19:13.539Z,38.47
2023-01-23T21:21:41.494Z,36.07
2023-01-23T21:24:08.734Z,36.13
2023-01-23T21:26:37.026Z,35.57
2023-01-23T21:29:04.485Z,33.53
2023-01-23T21:31:34.505Z,33.63
2023-01-23T21:34:03.629Z,34.57
2023-01-23T21:36:31.161Z,35.97
2023-01-23T21:38:58.232Z,33.80
2023-01-23T21:41:25.769Z,35.03
2023-01-23T21:43:52.918Z,35.27
2023-01-23T21:46:20.488Z,34.13
2023-01-23T21:48:47.481Z,37.03
2023-01-23T21:51:20.154Z,36.70
2023-01-23T21:53:49.919Z,37.23
2023-01-23T21:56:20.044Z,35.67
2023-01-23T21:58:47.391Z,38.40
2023-01-23T22:01:32.814Z,36.33
2023-01-23T22:04:02.940Z,36.40
2023-01-23T22:06:31.182Z,35.47
2023-01-23T22:08:58.520Z,38.10
2023-01-23T22:11:26.303Z,38.50
2023-01-23T22:13:53.672Z,35.40
2023-01-23T22:16:31.865Z,36.27
2023-01-23T22:19:07.427Z,35.83
2023-01-23T22:21:35.289Z,38.53
2023-01-23T22:24:02.246Z,37.40
2023-01-23T22:26:29.448Z,35.70
2023-01-23T22:28:56.404Z,38.70
2023-01-23T22:31:23.758Z,36.37
2023-01-23T22:33:50.737Z,35.13
2023-01-23T22:36:19.501Z,39.87
2023-01-23T22:38:53.719Z,38.27
2023-01-23T22:41:21.524Z,35.63
2023-01-23T22:43:53.655Z,34.37
2023-01-23T22:46:21.191Z,38.37
2023-01-23T22:48:48.109Z,35.57
2023-01-23T22:51:26.504Z,37.63
2023-01-23T22:53:54.564Z,39.73
2023-01-23T22:56:22.360Z,35.17
2023-01-23T22:58:50.780Z,36.97
2023-01-23T23:01:19.213Z,38.20
2023-01-23T23:03:46.685Z,40.73
2023-01-23T23:06:15.641Z,36.47
2023-01-23T23:08:45.132Z,37.30
2023-01-23T23:11:19.959Z,34.60
2023-01-23T23:13:47.235Z,34.53
2023-01-23T23:16:19.800Z,36.27
2023-01-23T23:18:49.081Z,33.73
2023-01-23T23:21:19.216Z,37.90
2023-01-23T23:23:46.600Z,34.43
2023-01-23T23:26:14.258Z,34.60
2023-01-23T23:28:41.649Z,35.47
2023-01-23T23:31:10.572Z,35.17
2023-01-23T23:33:37.754Z,35.47
2023-01-23T23:36:05.964Z,34.40
2023-01-23T23:38:33.168Z,36.60
2023-01-23T23:41:05.661Z,32.53
2023-01-23T23:43:33.155Z,33.70
2023-01-23T23:46:02.914Z,33.40
2023-01-23T23:48:31.314Z,34.27
2023-01-23T23:51:02.932Z,32.97
2023-01-23T23:53:30.091Z,33.67
2023-01-23T23:55:57.285Z,31.43
2023-01-23T23:58:24.468Z,31.03
